sensor_id;sensor_type;location;lat;lon;timestamp;pressure;altitude;pressure_sealevel;temperature;humidity
1776;BME280;885;42.626;23.200;2023-09-19T00:00:27;168981.97;;;14.05;100.00
1776;BME280;885;42.626;23.200;2023-09-19T00:02:54;168948.75;;;13.93;100.00
1776;BME280;885;42.626;23.200;2023-09-19T00:05:22;168915.56;;;13.81;100.00
1776;BME280;885;42.626;23.200;2023-09-19T00:07:53;168937.69;;;13.89;100.00
1776;BME280;885;42.626;23.200;2023-09-19T00:10:20;168941.81;;;13.91;100.00
1776;BME280;885;42.626;23.200;2023-09-19T00:12:50;168943.22;;;13.91;100.00
1776;BME280;885;42.626;23.200;2023-09-19T00:15:17;168962.59;;;13.98;100.00
1776;BME280;885;42.626;23.200;2023-09-19T00:17:45;168946.00;;;13.92;100.00
1776;BME280;885;42.626;23.200;2023-09-19T00:20:13;168916.97;;;13.82;100.00
1776;BME280;885;42.626;23.200;2023-09-19T00:22:42;168912.84;;;13.80;100.00
1776;BME280;885;42.626;23.200;2023-09-19T00:25:09;168904.53;;;13.77;100.00
1776;BME280;885;42.626;23.200;2023-09-19T00:27:37;168899.00;;;13.75;100.00
1776;BME280;885;42.626;23.200;2023-09-19T00:30:08;168899.00;;;13.75;100.00
1776;BME280;885;42.626;23.200;2023-09-19T00:32:40;168905.91;;;13.78;100.00
1776;BME280;885;42.626;23.200;2023-09-19T00:35:08;168887.94;;;13.71;100.00
1776;BME280;885;42.626;23.200;2023-09-19T00:37:36;168896.19;;;13.74;100.00
1776;BME280;885;42.626;23.200;2023-09-19T00:40:03;168869.97;;;13.65;100.00
1776;BME280;885;42.626;23.200;2023-09-19T00:42:31;168853.38;;;13.59;100.00
1776;BME280;885;42.626;23.200;2023-09-19T00:44:59;168829.88;;;13.50;100.00
1776;BME280;885;42.626;23.200;2023-09-19T00:47:28;168825.75;;;13.48;100.00
1776;BME280;885;42.626;23.200;2023-09-19T00:49:56;168846.47;;;13.56;100.00
1776;BME280;885;42.626;23.200;2023-09-19T00:52:25;168871.34;;;13.65;100.00
1776;BME280;885;42.626;23.200;2023-09-19T00:54:52;168874.09;;;13.66;100.00
1776;BME280;885;42.626;23.200;2023-09-19T00:57:20;168881.00;;;13.69;100.00
1776;BME280;885;42.626;23.200;2023-09-19T00:59:48;168874.09;;;13.66;100.00
1776;BME280;885;42.626;23.200;2023-09-19T01:02:16;168854.78;;;13.59;100.00
1776;BME280;885;42.626;23.200;2023-09-19T01:04:44;168825.75;;;13.48;100.00
1776;BME280;885;42.626;23.200;2023-09-19T01:07:11;168829.88;;;13.50;100.00
1776;BME280;885;42.626;23.200;2023-09-19T01:09:42;168835.41;;;13.52;100.00
1776;BME280;885;42.626;23.200;2023-09-19T01:12:12;168857.50;;;13.60;100.00
1776;BME280;885;42.626;23.200;2023-09-19T01:14:48;168874.09;;;13.66;100.00
1776;BME280;885;42.626;23.200;2023-09-19T01:17:25;168879.63;;;13.68;100.00
1776;BME280;885;42.626;23.200;2023-09-19T01:20:06;168861.63;;;13.62;100.00
1776;BME280;885;42.626;23.200;2023-09-19T01:22:42;168842.31;;;13.54;100.00
1776;BME280;885;42.626;23.200;2023-09-19T01:25:39;168835.41;;;13.52;100.00
1776;BME280;885;42.626;23.200;2023-09-19T01:28:20;168835.41;;;13.52;100.00
1776;BME280;885;42.626;23.200;2023-09-19T01:30:58;168828.47;;;13.49;100.00
1776;BME280;885;42.626;23.200;2023-09-19T01:33:27;168810.50;;;13.43;100.00
1776;BME280;885;42.626;23.200;2023-09-19T01:35:59;168810.50;;;13.43;100.00
1776;BME280;885;42.626;23.200;2023-09-19T01:38:26;168803.63;;;13.40;100.00
1776;BME280;885;42.626;23.200;2023-09-19T01:41:00;168821.56;;;13.47;100.00
1776;BME280;885;42.626;23.200;2023-09-19T01:43:34;168822.94;;;13.47;100.00
1776;BME280;885;42.626;23.200;2023-09-19T01:46:10;168840.94;;;13.54;100.00
1776;BME280;885;42.626;23.200;2023-09-19T01:48:43;168843.72;;;13.55;100.00
1776;BME280;885;42.626;23.200;2023-09-19T01:51:14;168839.53;;;13.53;100.00
1776;BME280;885;42.626;23.200;2023-09-19T01:53:51;168793.94;;;13.37;100.00
1776;BME280;885;42.626;23.200;2023-09-19T01:56:25;168756.63;;;13.23;100.00
1776;BME280;885;42.626;23.200;2023-09-19T01:58:59;168749.72;;;13.21;100.00
1776;BME280;885;42.626;23.200;2023-09-19T02:01:31;168746.94;;;13.20;100.00
1776;BME280;885;42.626;23.200;2023-09-19T02:03:58;168737.28;;;13.16;100.00
1776;BME280;885;42.626;23.200;2023-09-19T02:06:25;168742.78;;;13.18;100.00
1776;BME280;885;42.626;23.200;2023-09-19T02:08:53;168767.69;;;13.27;100.00
1776;BME280;885;42.626;23.200;2023-09-19T02:11:21;168770.44;;;13.28;100.00
1776;BME280;885;42.626;23.200;2023-09-19T02:13:47;168763.50;;;13.26;100.00
1776;BME280;885;42.626;23.200;2023-09-19T02:16:18;168778.75;;;13.31;100.00
1776;BME280;885;42.626;23.200;2023-09-19T02:18:47;168781.47;;;13.32;100.00
1776;BME280;885;42.626;23.200;2023-09-19T02:21:15;168741.41;;;13.18;100.00
1776;BME280;885;42.626;23.200;2023-09-19T02:23:42;168715.16;;;13.08;100.00
1776;BME280;885;42.626;23.200;2023-09-19T02:26:09;168690.22;;;12.99;100.00
1776;BME280;885;42.626;23.200;2023-09-19T02:28:37;168699.94;;;13.03;100.00
1776;BME280;885;42.626;23.200;2023-09-19T02:31:04;168720.69;;;13.10;100.00
1776;BME280;885;42.626;23.200;2023-09-19T02:33:31;168716.56;;;13.09;100.00
1776;BME280;885;42.626;23.200;2023-09-19T02:36:00;168694.34;;;13.01;100.00
1776;BME280;885;42.626;23.200;2023-09-19T02:38:29;168695.75;;;13.01;100.00
1776;BME280;885;42.626;23.200;2023-09-19T02:40:56;168681.97;;;12.96;100.00
1776;BME280;885;42.626;23.200;2023-09-19T02:43:23;168693.03;;;13.00;100.00
1776;BME280;885;42.626;23.200;2023-09-19T02:45:50;168697.16;;;13.02;100.00
1776;BME280;885;42.626;23.200;2023-09-19T02:48:18;168704.13;;;13.04;100.00
1776;BME280;885;42.626;23.200;2023-09-19T02:50:45;168699.94;;;13.03;100.00
1776;BME280;885;42.626;23.200;2023-09-19T02:53:14;168702.69;;;13.04;100.00
1776;BME280;885;42.626;23.200;2023-09-19T02:55:41;168702.69;;;13.04;100.00
1776;BME280;885;42.626;23.200;2023-09-19T02:58:08;168675.06;;;12.94;100.00
1776;BME280;885;42.626;23.200;2023-09-19T03:00:37;168658.47;;;12.88;100.00
1776;BME280;885;42.626;23.200;2023-09-19T03:03:04;168673.66;;;12.93;100.00
1776;BME280;885;42.626;23.200;2023-09-19T03:05:33;168677.78;;;12.95;100.00
1776;BME280;885;42.626;23.200;2023-09-19T03:08:00;168675.06;;;12.94;100.00
1776;BME280;885;42.626;23.200;2023-09-19T03:10:29;168679.19;;;12.95;100.00
1776;BME280;885;42.626;23.200;2023-09-19T03:12:56;168690.22;;;12.99;100.00
1776;BME280;885;42.626;23.200;2023-09-19T03:15:25;168668.13;;;12.91;100.00
1776;BME280;885;42.626;23.200;2023-09-19T03:17:52;168681.97;;;12.96;100.00
1776;BME280;885;42.626;23.200;2023-09-19T03:20:19;168661.22;;;12.89;100.00
1776;BME280;885;42.626;23.200;2023-09-19T03:22:46;168636.38;;;12.80;100.00
1776;BME280;885;42.626;23.200;2023-09-19T03:25:13;168619.75;;;12.73;100.00
1776;BME280;885;42.626;23.200;2023-09-19T03:27:42;168611.50;;;12.70;100.00
1776;BME280;885;42.626;23.200;2023-09-19T03:30:09;168636.38;;;12.80;100.00
1776;BME280;885;42.626;23.200;2023-09-19T03:32:43;168629.47;;;12.77;100.00
1776;BME280;885;42.626;23.200;2023-09-19T03:35:10;168637.72;;;12.80;100.00
1776;BME280;885;42.626;23.200;2023-09-19T03:37:39;168652.94;;;12.86;100.00
1776;BME280;885;42.626;23.200;2023-09-19T03:40:07;168658.47;;;12.88;100.00
1776;BME280;885;42.626;23.200;2023-09-19T03:42:38;168619.75;;;12.73;100.00
1776;BME280;885;42.626;23.200;2023-09-19T03:45:07;168630.84;;;12.77;100.00
1776;BME280;885;42.626;23.200;2023-09-19T03:47:37;168632.19;;;12.78;100.00
1776;BME280;885;42.626;23.200;2023-09-19T03:50:05;168625.34;;;12.75;100.00
1776;BME280;885;42.626;23.200;2023-09-19T03:52:33;168618.41;;;12.73;100.00
1776;BME280;885;42.626;23.200;2023-09-19T03:55:00;168629.47;;;12.77;100.00
1776;BME280;885;42.626;23.200;2023-09-19T03:57:28;168683.31;;;12.97;100.00
1776;BME280;885;42.626;23.200;2023-09-19T03:59:54;168694.34;;;13.01;100.00
1776;BME280;885;42.626;23.200;2023-09-19T04:02:23;168698.53;;;13.02;100.00
1776;BME280;885;42.626;23.200;2023-09-19T04:04:50;168709.66;;;13.06;100.00
1776;BME280;885;42.626;23.200;2023-09-19T04:07:18;168669.53;;;12.92;100.00
1776;BME280;885;42.626;23.200;2023-09-19T04:09:47;168650.16;;;12.85;100.00
1776;BME280;885;42.626;23.200;2023-09-19T04:12:14;168625.34;;;12.75;100.00
1776;BME280;885;42.626;23.200;2023-09-19T04:14:42;168658.47;;;12.88;100.00
1776;BME280;885;42.626;23.200;2023-09-19T04:17:09;168672.25;;;12.93;100.00
1776;BME280;885;42.626;23.200;2023-09-19T04:19:37;168683.31;;;12.97;100.00
1776;BME280;885;42.626;23.200;2023-09-19T04:22:04;168686.09;;;12.98;100.00
1776;BME280;885;42.626;23.200;2023-09-19T04:24:31;168699.94;;;13.03;100.00
1776;BME280;885;42.626;23.200;2023-09-19T04:26:59;168722.09;;;13.11;100.00
1776;BME280;885;42.626;23.200;2023-09-19T04:29:26;168745.59;;;13.19;100.00
1776;BME280;885;42.626;23.200;2023-09-19T04:31:55;168749.72;;;13.21;100.00
1776;BME280;885;42.626;23.200;2023-09-19T04:34:22;168767.69;;;13.27;100.00
1776;BME280;885;42.626;23.200;2023-09-19T04:36:51;168766.28;;;13.27;100.00
1776;BME280;885;42.626;23.200;2023-09-19T04:39:18;168766.28;;;13.27;100.00
1776;BME280;885;42.626;23.200;2023-09-19T04:41:46;168760.78;;;13.25;100.00
1776;BME280;885;42.626;23.200;2023-09-19T04:44:13;168759.38;;;13.24;100.00
1776;BME280;885;42.626;23.200;2023-09-19T04:46:39;168782.88;;;13.33;100.00
1776;BME280;885;42.626;23.200;2023-09-19T04:49:06;168806.38;;;13.41;100.00
1776;BME280;885;42.626;23.200;2023-09-19T04:51:33;168821.56;;;13.47;100.00
1776;BME280;885;42.626;23.200;2023-09-19T04:54:03;168832.59;;;13.51;100.00
1776;BME280;885;42.626;23.200;2023-09-19T04:56:30;168827.09;;;13.49;100.00
1776;BME280;885;42.626;23.200;2023-09-19T04:58:57;168849.25;;;13.57;100.00
1776;BME280;885;42.626;23.200;2023-09-19T05:01:24;168905.91;;;13.78;100.00
1776;BME280;885;42.626;23.200;2023-09-19T05:03:50;168916.97;;;13.82;100.00
1776;BME280;885;42.626;23.200;2023-09-19T05:06:17;168943.22;;;13.91;100.00
1776;BME280;885;42.626;23.200;2023-09-19T05:08:45;168981.97;;;14.05;100.00
1776;BME280;885;42.626;23.200;2023-09-19T05:11:14;169020.69;;;14.19;100.00
1776;BME280;885;42.626;23.200;2023-09-19T05:13:40;169045.59;;;14.28;100.00
1776;BME280;885;42.626;23.200;2023-09-19T05:16:07;169053.91;;;14.31;100.00
1776;BME280;885;42.626;23.200;2023-09-19T05:18:35;168987.50;;;14.07;100.00
1776;BME280;885;42.626;23.200;2023-09-19T05:21:02;168948.75;;;13.93;100.00
1776;BME280;885;42.626;23.200;2023-09-19T05:23:29;168947.41;;;13.93;100.00
1776;BME280;885;42.626;23.200;2023-09-19T05:25:56;169015.16;;;14.17;100.00
1776;BME280;885;42.626;23.200;2023-09-19T05:28:26;169062.22;;;14.35;100.00
1776;BME280;885;42.626;23.200;2023-09-19T05:30:53;169103.69;;;14.50;100.00
1776;BME280;885;42.626;23.200;2023-09-19T05:33:20;169142.44;;;14.64;100.00
1776;BME280;885;42.626;23.200;2023-09-19T05:35:48;169178.38;;;14.77;100.00
1776;BME280;885;42.626;23.200;2023-09-19T05:38:15;169203.31;;;14.86;100.00
1776;BME280;885;42.626;23.200;2023-09-19T05:40:44;169242.03;;;15.00;100.00
1776;BME280;885;42.626;23.200;2023-09-19T05:43:11;169291.88;;;15.18;100.00
1776;BME280;885;42.626;23.200;2023-09-19T05:45:41;169337.53;;;15.35;100.00
1776;BME280;885;42.626;23.200;2023-09-19T05:48:09;169388.81;;;15.53;100.00
1776;BME280;885;42.626;23.200;2023-09-19T05:50:37;169435.88;;;15.70;100.00
1776;BME280;885;42.626;23.200;2023-09-19T05:53:04;169471.84;;;15.83;100.00
1776;BME280;885;42.626;23.200;2023-09-19T05:55:31;169491.25;;;15.90;100.00
1776;BME280;885;42.626;23.200;2023-09-19T05:57:58;169517.56;;;16.00;100.00
1776;BME280;885;42.626;23.200;2023-09-19T06:00:25;169582.63;;;16.24;100.00
1776;BME280;885;42.626;23.200;2023-09-19T06:02:55;169611.72;;;16.34;100.00
1776;BME280;885;42.626;23.200;2023-09-19T06:05:22;169649.13;;;16.48;100.00
1776;BME280;885;42.626;23.200;2023-09-19T06:07:50;169635.25;;;16.43;100.00
1776;BME280;885;42.626;23.200;2023-09-19T06:10:17;169615.84;;;16.36;100.00
1776;BME280;885;42.626;23.200;2023-09-19T06:12:46;169538.31;;;16.08;100.00
1776;BME280;885;42.626;23.200;2023-09-19T06:15:14;169571.56;;;16.20;100.00
1776;BME280;885;42.626;23.200;2023-09-19T06:17:47;169615.84;;;16.36;100.00
1776;BME280;885;42.626;23.200;2023-09-19T06:20:15;169658.88;;;16.51;100.00
1776;BME280;885;42.626;23.200;2023-09-19T06:22:44;169667.19;;;16.54;100.00
1776;BME280;885;42.626;23.200;2023-09-19T06:25:12;169668.53;;;16.55;100.00
1776;BME280;885;42.626;23.200;2023-09-19T06:27:41;169631.13;;;16.41;100.00
1776;BME280;885;42.626;23.200;2023-09-19T06:30:09;169719.78;;;16.74;100.00
1776;BME280;885;42.626;23.200;2023-09-19T06:32:36;169675.47;;;16.57;100.00
1776;BME280;885;42.626;23.200;2023-09-19T06:35:04;169718.44;;;16.73;100.00
1776;BME280;885;42.626;23.200;2023-09-19T06:37:34;169776.66;;;16.94;100.00
1776;BME280;885;42.626;23.200;2023-09-19T06:40:01;169804.34;;;17.04;100.00
1776;BME280;885;42.626;23.200;2023-09-19T06:42:30;169820.97;;;17.10;100.00
1776;BME280;885;42.626;23.200;2023-09-19T06:44:58;169861.16;;;17.25;100.00
1776;BME280;885;42.626;23.200;2023-09-19T06:47:24;169891.66;;;17.36;100.00
1776;BME280;885;42.626;23.200;2023-09-19T06:49:52;169920.78;;;17.46;100.00
1776;BME280;885;42.626;23.200;2023-09-19T06:52:19;169941.59;;;17.54;100.00
1776;BME280;885;42.626;23.200;2023-09-19T06:54:49;169988.75;;;17.71;100.00
1776;BME280;885;42.626;23.200;2023-09-19T06:57:17;169981.78;;;17.69;100.00
1776;BME280;885;42.626;23.200;2023-09-19T06:59:45;169995.69;;;17.74;100.00
1776;BME280;885;42.626;23.200;2023-09-19T07:02:12;170006.78;;;17.78;100.00
1776;BME280;885;42.626;23.200;2023-09-19T07:04:40;170017.84;;;17.82;100.00
1776;BME280;885;42.626;23.200;2023-09-19T07:07:07;170035.88;;;17.88;100.00
1776;BME280;885;42.626;23.200;2023-09-19T07:09:34;170067.75;;;18.00;100.00
1776;BME280;885;42.626;23.200;2023-09-19T07:12:02;170094.13;;;18.09;100.00
1776;BME280;885;42.626;23.200;2023-09-19T07:14:29;170114.91;;;18.17;100.00
1776;BME280;885;42.626;23.200;2023-09-19T07:16:57;170116.31;;;18.17;100.00
1776;BME280;885;42.626;23.200;2023-09-19T07:19:25;170144.03;;;18.27;100.00
1776;BME280;885;42.626;23.200;2023-09-19T07:21:53;170150.97;;;18.30;100.00
1776;BME280;885;42.626;23.200;2023-09-19T07:24:20;170182.84;;;18.42;100.00
1776;BME280;885;42.626;23.200;2023-09-19T07:26:49;170209.28;;;18.51;100.00
1776;BME280;885;42.626;23.200;2023-09-19T07:29:17;170214.84;;;18.53;100.00
1776;BME280;885;42.626;23.200;2023-09-19T07:31:44;170203.75;;;18.49;99.32
1776;BME280;885;42.626;23.200;2023-09-19T07:34:12;170225.94;;;18.57;100.00
1776;BME280;885;42.626;23.200;2023-09-19T07:36:40;170203.75;;;18.49;99.00
1776;BME280;885;42.626;23.200;2023-09-19T07:39:07;170206.50;;;18.50;99.66
1776;BME280;885;42.626;23.200;2023-09-19T07:41:34;170237.03;;;18.61;99.99
1776;BME280;885;42.626;23.200;2023-09-19T07:44:01;170270.31;;;18.73;100.00
1776;BME280;885;42.626;23.200;2023-09-19T07:46:30;170307.78;;;18.87;99.96
1776;BME280;885;42.626;23.200;2023-09-19T07:48:57;170350.75;;;19.02;99.45
1776;BME280;885;42.626;23.200;2023-09-19T07:51:24;170366.06;;;19.08;98.00
1776;BME280;885;42.626;23.200;2023-09-19T07:53:51;170397.97;;;19.20;97.81
1776;BME280;885;42.626;23.200;2023-09-19T07:56:18;170429.84;;;19.31;97.08
1776;BME280;885;42.626;23.200;2023-09-19T07:58:45;170450.75;;;19.39;96.21
1776;BME280;885;42.626;23.200;2023-09-19T08:01:13;170474.34;;;19.47;96.15
1776;BME280;885;42.626;23.200;2023-09-19T08:03:42;170497.97;;;19.56;94.76
1776;BME280;885;42.626;23.200;2023-09-19T08:06:10;170511.81;;;19.61;94.46
1776;BME280;885;42.626;23.200;2023-09-19T08:08:38;170484.06;;;19.51;93.09
1776;BME280;885;42.626;23.200;2023-09-19T08:11:06;170456.31;;;19.41;95.19
1776;BME280;885;42.626;23.200;2023-09-19T08:13:37;170503.50;;;19.58;95.13
1776;BME280;885;42.626;23.200;2023-09-19T08:16:06;170535.41;;;19.69;94.46
1776;BME280;885;42.626;23.200;2023-09-19T08:18:33;170577.06;;;19.85;94.35
1776;BME280;885;42.626;23.200;2023-09-19T08:21:01;170642.34;;;20.08;93.80
1776;BME280;885;42.626;23.200;2023-09-19T08:23:31;170703.47;;;20.30;92.67
1776;BME280;885;42.626;23.200;2023-09-19T08:25:58;170764.59;;;20.52;90.97
1776;BME280;885;42.626;23.200;2023-09-19T08:28:28;170797.94;;;20.65;89.62
1776;BME280;885;42.626;23.200;2023-09-19T08:30:55;170803.47;;;20.67;88.70
1776;BME280;885;42.626;23.200;2023-09-19T08:33:23;170853.47;;;20.85;88.19
1776;BME280;885;42.626;23.200;2023-09-19T08:35:50;170885.47;;;20.96;86.94
1776;BME280;885;42.626;23.200;2023-09-19T08:38:20;170842.22;;;20.82;84.37
1776;BME280;885;42.626;23.200;2023-09-19T08:40:47;170842.22;;;20.82;84.81
1776;BME280;885;42.626;23.200;2023-09-19T08:43:13;170781.06;;;20.59;84.65
1776;BME280;885;42.626;23.200;2023-09-19T08:45:40;170793.56;;;20.64;86.04
1776;BME280;885;42.626;23.200;2023-09-19T08:48:22;170810.25;;;20.70;88.06
1776;BME280;885;42.626;23.200;2023-09-19T08:50:52;170818.59;;;20.73;85.97
1776;BME280;885;42.626;23.200;2023-09-19T08:53:32;170868.59;;;20.91;85.38
1776;BME280;885;42.626;23.200;2023-09-19T08:56:05;170908.94;;;21.06;84.26
1776;BME280;885;42.626;23.200;2023-09-19T08:58:44;170889.41;;;20.99;83.96
1776;BME280;885;42.626;23.200;2023-09-19T09:01:14;170922.84;;;21.11;85.07
1776;BME280;885;42.626;23.200;2023-09-19T09:03:42;170922.84;;;21.11;83.56
1776;BME280;885;42.626;23.200;2023-09-19T09:06:13;170964.53;;;21.26;86.96
1776;BME280;885;42.626;23.200;2023-09-19T09:08:43;171015.97;;;21.45;85.05
1776;BME280;885;42.626;23.200;2023-09-19T09:11:10;171053.44;;;21.58;84.27
1776;BME280;885;42.626;23.200;2023-09-19T09:13:37;171095.16;;;21.73;83.13
1776;BME280;885;42.626;23.200;2023-09-19T09:16:04;171145.25;;;21.91;83.29
1776;BME280;885;42.626;23.200;2023-09-19T09:18:31;171186.97;;;22.06;83.13
1776;BME280;885;42.626;23.200;2023-09-19T09:20:58;171164.72;;;21.98;81.06
1776;BME280;885;42.626;23.200;2023-09-19T09:23:27;171131.38;;;21.86;80.34
1776;BME280;885;42.626;23.200;2023-09-19T09:25:57;170644.84;;;21.47;81.42
1776;BME280;885;42.626;23.200;2023-09-19T09:28:26;170667.09;;;21.55;82.75
1776;BME280;885;42.626;23.200;2023-09-19T09:30:53;170672.63;;;21.57;81.36
1776;BME280;885;42.626;23.200;2023-09-19T09:33:21;170703.09;;;21.68;82.72
1776;BME280;885;42.626;23.200;2023-09-19T09:35:52;170753.13;;;21.86;80.10
1776;BME280;885;42.626;23.200;2023-09-19T09:38:22;171209.19;;;22.14;82.55
1776;BME280;885;42.626;23.200;2023-09-19T09:40:53;171328.81;;;22.58;81.46
1776;BME280;885;42.626;23.200;2023-09-19T09:43:28;171431.78;;;22.95;78.20
1776;BME280;885;42.626;23.200;2023-09-19T09:46:10;171456.78;;;23.04;75.75
1776;BME280;885;42.626;23.200;2023-09-19T09:49:05;171073.63;;;23.03;75.83
1776;BME280;885;42.626;23.200;2023-09-19T09:51:42;171466.56;;;23.08;77.09
1776;BME280;885;42.626;23.200;2023-09-19T09:54:13;171061.16;;;22.98;74.92
1776;BME280;885;42.626;23.200;2023-09-19T09:56:57;171022.28;;;22.84;75.56
1776;BME280;885;42.626;23.200;2023-09-19T09:59:49;171014.00;;;22.81;76.42
1776;BME280;885;42.626;23.200;2023-09-19T10:02:25;170521.56;;;22.40;76.88
1776;BME280;885;42.626;23.200;2023-09-19T10:04:55;170527.09;;;22.42;78.43
1776;BME280;885;42.626;23.200;2023-09-19T10:07:40;170535.44;;;22.45;77.48
1776;BME280;885;42.626;23.200;2023-09-19T10:10:13;170560.31;;;22.54;76.29
1776;BME280;885;42.626;23.200;2023-09-19T10:12:46;170582.56;;;22.62;77.01
1776;BME280;885;42.626;23.200;2023-09-19T10:15:17;170618.50;;;22.75;78.29
1776;BME280;885;42.626;23.200;2023-09-19T10:17:46;170622.69;;;22.76;79.19
1776;BME280;885;42.626;23.200;2023-09-19T10:20:15;170621.31;;;22.76;78.61
1776;BME280;885;42.626;23.200;2023-09-19T10:23:06;170612.97;;;22.73;79.06
1776;BME280;885;42.626;23.200;2023-09-19T10:25:37;170629.59;;;22.79;78.94
1776;BME280;885;42.626;23.200;2023-09-19T10:28:06;170621.31;;;22.76;78.48
1776;BME280;885;42.626;23.200;2023-09-19T10:30:39;170614.38;;;22.73;78.84
1776;BME280;885;42.626;23.200;2023-09-19T10:33:11;170622.69;;;22.76;79.24
1776;BME280;885;42.626;23.200;2023-09-19T10:35:39;170635.16;;;22.81;79.15
1776;BME280;885;42.626;23.200;2023-09-19T10:38:07;170651.78;;;22.87;79.38
1776;BME280;885;42.626;23.200;2023-09-19T10:40:37;170675.31;;;22.96;78.59
1776;BME280;885;42.626;23.200;2023-09-19T10:43:11;170701.63;;;23.05;77.88
1776;BME280;885;42.626;23.200;2023-09-19T10:45:44;170704.41;;;23.06;77.92
1776;BME280;885;42.626;23.200;2023-09-19T10:48:12;170698.81;;;23.04;77.74
1776;BME280;885;42.626;23.200;2023-09-19T10:50:44;170693.28;;;23.02;78.68
1776;BME280;885;42.626;23.200;2023-09-19T10:53:13;170719.63;;;23.12;78.16
1776;BME280;885;42.626;23.200;2023-09-19T10:55:42;170757.00;;;23.25;76.94
1776;BME280;885;42.626;23.200;2023-09-19T10:58:25;170793.06;;;23.38;76.02
1776;BME280;885;42.626;23.200;2023-09-19T11:00:56;170809.69;;;23.44;75.69
1776;BME280;885;42.626;23.200;2023-09-19T11:03:27;170812.47;;;23.45;75.41
1776;BME280;885;42.626;23.200;2023-09-19T11:06:08;170806.94;;;23.43;75.10
1776;BME280;885;42.626;23.200;2023-09-19T11:09:01;170394.50;;;23.31;75.33
1776;BME280;885;42.626;23.200;2023-09-19T11:11:48;170820.75;;;23.48;75.87
1776;BME280;885;42.626;23.200;2023-09-19T11:14:41;170901.09;;;23.78;75.24
1776;BME280;885;42.626;23.200;2023-09-19T11:17:41;170959.28;;;23.99;72.87
1776;BME280;885;42.626;23.200;2023-09-19T11:20:29;171013.41;;;24.18;72.42
1776;BME280;885;42.626;23.200;2023-09-19T11:23:22;171039.72;;;24.28;71.08
1776;BME280;885;42.626;23.200;2023-09-19T11:25:49;171038.38;;;24.27;70.94
1776;BME280;885;42.626;23.200;2023-09-19T11:28:44;171089.66;;;24.46;70.40
1776;BME280;885;42.626;23.200;2023-09-19T11:34:48;171182.56;;;24.80;69.82
1776;BME280;885;42.626;23.200;2023-09-19T11:40:28;170806.66;;;24.81;68.37
1776;BME280;885;42.626;23.200;2023-09-19T11:42:56;170777.56;;;24.71;69.38
1776;BME280;885;42.626;23.200;2023-09-19T11:46:01;170788.69;;;24.75;68.49
1776;BME280;885;42.626;23.200;2023-09-19T11:48:28;170824.66;;;24.88;68.14
1776;BME280;885;42.626;23.200;2023-09-19T11:50:57;170835.69;;;24.92;68.74
1776;BME280;885;42.626;23.200;2023-09-19T11:53:31;170867.50;;;25.03;68.21
1776;BME280;885;42.626;23.200;2023-09-19T11:55:58;170888.28;;;25.11;67.71
1776;BME280;885;42.626;23.200;2023-09-19T11:58:27;170878.56;;;25.07;67.26
1776;BME280;885;42.626;23.200;2023-09-19T12:00:55;170479.06;;;25.00;66.62
1776;BME280;885;42.626;23.200;2023-09-19T12:03:29;170458.34;;;24.93;66.70
1776;BME280;885;42.626;23.200;2023-09-19T12:05:58;170425.25;;;24.81;67.52
1776;BME280;885;42.626;23.200;2023-09-19T12:08:25;170010.78;;;24.68;68.30
1776;BME280;885;42.626;23.200;2023-09-19T12:10:53;170421.13;;;24.79;68.60
1776;BME280;885;42.626;23.200;2023-09-19T12:13:20;170509.41;;;25.11;68.58
1776;BME280;885;42.626;23.200;2023-09-19T12:15:47;170989.31;;;25.48;66.18
1776;BME280;885;42.626;23.200;2023-09-19T12:18:27;171134.63;;;26.00;64.05
1776;BME280;885;42.626;23.200;2023-09-19T12:20:55;171242.63;;;26.40;62.30
1776;BME280;885;42.626;23.200;2023-09-19T12:23:25;170516.44;;;26.53;60.18
1776;BME280;885;42.626;23.200;2023-09-19T12:25:52;170194.59;;;26.74;59.15
1776;BME280;885;42.626;23.200;2023-09-19T12:28:24;169432.31;;;26.74;58.41
1776;BME280;885;42.626;23.200;2023-09-19T12:30:54;169888.88;;;27.02;60.03
1776;BME280;885;42.626;23.200;2023-09-19T12:33:21;169517.19;;;27.06;58.81
1776;BME280;885;42.626;23.200;2023-09-19T12:35:52;169535.00;;;27.12;58.42
1776;BME280;885;42.626;23.200;2023-09-19T12:38:25;169153.66;;;27.12;58.53
1776;BME280;885;42.626;23.200;2023-09-19T12:40:55;169127.69;;;27.03;59.27
1776;BME280;885;42.626;23.200;2023-09-19T12:43:24;169164.59;;;27.16;58.44
1776;BME280;885;42.626;23.200;2023-09-19T12:45:51;169197.38;;;27.28;59.57
1776;BME280;885;42.626;23.200;2023-09-19T12:48:20;169230.19;;;27.40;58.15
1776;BME280;885;42.626;23.200;2023-09-19T12:51:02;168859.63;;;27.44;57.14
1776;BME280;885;42.626;23.200;2023-09-19T12:53:33;168822.81;;;27.31;58.97
1776;BME280;885;42.626;23.200;2023-09-19T12:56:03;168839.19;;;27.37;58.42
1776;BME280;885;42.626;23.200;2023-09-19T12:58:32;168453.72;;;27.35;58.11
1776;BME280;885;42.626;23.200;2023-09-19T13:01:00;167559.72;;;26.87;57.68
1776;BME280;885;42.626;23.200;2023-09-19T13:03:28;167140.97;;;26.72;58.10
1776;BME280;885;42.626;23.200;2023-09-19T13:05:59;167107.16;;;26.60;60.10
1776;BME280;885;42.626;23.200;2023-09-19T13:08:29;167559.72;;;26.87;58.64
1776;BME280;885;42.626;23.200;2023-09-19T13:11:04;168080.47;;;27.38;58.10
1776;BME280;885;42.626;23.200;2023-09-19T13:13:35;168544.78;;;27.69;57.55
1776;BME280;885;42.626;23.200;2023-09-19T13:16:03;168563.84;;;27.76;59.41
1776;BME280;885;42.626;23.200;2023-09-19T13:18:44;168171.38;;;27.72;56.44
1776;BME280;885;42.626;23.200;2023-09-19T13:21:12;167754.59;;;27.59;57.50
1776;BME280;885;42.626;23.200;2023-09-19T13:23:48;167751.94;;;27.58;57.92
1776;BME280;885;42.626;23.200;2023-09-19T13:26:16;167714.03;;;27.44;58.86